createdAt,value
2022-10-02T00:00:03.952Z,997.31
2022-10-02T00:00:14.005Z,997.30
2022-10-02T00:00:23.959Z,997.26
2022-10-02T00:00:33.950Z,997.27
2022-10-02T00:00:44.078Z,997.29
2022-10-02T00:00:53.965Z,997.25
2022-10-02T00:01:03.951Z,997.30
2022-10-02T00:01:14.102Z,997.26
2022-10-02T00:01:24.121Z,997.26
2022-10-02T00:01:33.983Z,997.32
2022-10-02T00:01:44.042Z,997.30
2022-10-02T00:01:54.028Z,997.32
2022-10-02T00:02:04.075Z,997.34
2022-10-02T00:02:13.963Z,997.35
2022-10-02T00:02:23.953Z,997.34
2022-10-02T00:02:34.031Z,997.33
2022-10-02T00:02:44.991Z,997.32
2022-10-02T00:02:53.953Z,997.28
2022-10-02T00:03:03.939Z,997.32
2022-10-02T00:03:13.955Z,997.26
2022-10-02T00:03:23.988Z,997.26
2022-10-02T00:03:34.028Z,997.27
2022-10-02T00:03:43.987Z,997.34
2022-10-02T00:03:54.016Z,997.38
2022-10-02T00:04:03.988Z,997.34
2022-10-02T00:04:14.119Z,997.36
2022-10-02T00:04:23.970Z,997.36
2022-10-02T00:04:34.093Z,997.38
2022-10-02T00:04:43.940Z,997.37
2022-10-02T00:04:54.038Z,997.39
2022-10-02T00:05:03.934Z,997.32
2022-10-02T00:05:14.001Z,997.38
2022-10-02T00:05:23.937Z,997.36
2022-10-02T00:05:33.934Z,997.37
2022-10-02T00:05:43.945Z,997.43
2022-10-02T00:05:53.951Z,997.48
2022-10-02T00:06:03.940Z,997.46
2022-10-02T00:06:13.973Z,997.44
2022-10-02T00:06:23.933Z,997.43
2022-10-02T00:06:34.294Z,997.38
2022-10-02T00:06:43.966Z,997.45
2022-10-02T00:06:53.937Z,997.45
2022-10-02T00:07:03.972Z,997.47
2022-10-02T00:07:13.926Z,997.45
2022-10-02T00:07:23.915Z,997.49
2022-10-02T00:07:33.926Z,997.45
2022-10-02T00:07:43.930Z,997.42
2022-10-02T00:07:53.989Z,997.43
2022-10-02T00:08:03.957Z,997.51
2022-10-02T00:08:13.917Z,997.51
2022-10-02T00:08:24.421Z,997.50
2022-10-02T00:08:34.210Z,997.44
2022-10-02T00:08:43.918Z,997.47
2022-10-02T00:08:54.783Z,997.47
2022-10-02T00:09:03.911Z,997.46
2022-10-02T00:09:13.919Z,997.44
2022-10-02T00:09:23.904Z,997.41
2022-10-02T00:09:33.953Z,997.46
2022-10-02T00:09:43.927Z,997.48
2022-10-02T00:09:53.921Z,997.47
2022-10-02T00:10:03.921Z,997.36
2022-10-02T00:10:13.924Z,997.52
2022-10-02T00:10:23.913Z,997.44
2022-10-02T00:10:33.940Z,997.48
2022-10-02T00:10:43.908Z,997.49
2022-10-02T00:10:53.938Z,997.49
2022-10-02T00:11:04.811Z,997.47
2022-10-02T00:11:13.932Z,997.45
2022-10-02T00:11:23.959Z,997.43
2022-10-02T00:11:33.920Z,997.42
2022-10-02T00:11:43.920Z,997.45
2022-10-02T00:11:53.991Z,997.47
2022-10-02T00:12:03.920Z,997.46
2022-10-02T00:12:13.912Z,997.51
2022-10-02T00:12:23.899Z,997.49
2022-10-02T00:12:33.932Z,997.55
2022-10-02T00:12:43.905Z,997.49
2022-10-02T00:12:53.918Z,997.53
2022-10-02T00:13:04.781Z,997.53
2022-10-02T00:13:13.892Z,997.54
2022-10-02T00:13:23.894Z,997.54
2022-10-02T00:13:33.920Z,997.50
2022-10-02T00:13:43.980Z,997.53
2022-10-02T00:13:53.904Z,997.54
2022-10-02T00:14:03.923Z,997.53
2022-10-02T00:14:13.898Z,997.51
2022-10-02T00:14:24.810Z,997.50
2022-10-02T00:14:34.790Z,997.50
2022-10-02T00:14:43.883Z,997.45
2022-10-02T00:14:53.908Z,997.52
2022-10-02T00:15:03.901Z,997.54
2022-10-02T00:15:13.931Z,997.57
2022-10-02T00:15:23.906Z,997.53
2022-10-02T00:15:33.894Z,997.55
2022-10-02T00:15:43.889Z,997.58
2022-10-02T00:15:53.900Z,997.49
2022-10-02T00:16:03.962Z,997.57
2022-10-02T00:16:13.916Z,997.53
2022-10-02T00:16:23.951Z,997.60
2022-10-02T00:16:34.419Z,997.59
2022-10-02T00:16:43.963Z,997.57
2022-10-02T00:16:53.945Z,997.56
2022-10-02T00:17:03.878Z,997.57
2022-10-02T00:17:13.924Z,997.57
2022-10-02T00:17:23.891Z,997.58
2022-10-02T00:17:33.870Z,997.60
2022-10-02T00:17:43.887Z,997.58
2022-10-02T00:17:53.885Z,997.57
2022-10-02T00:18:03.868Z,997.60
2022-10-02T00:18:13.891Z,997.60
2022-10-02T00:18:23.895Z,997.58
2022-10-02T00:18:33.892Z,997.57
2022-10-02T00:18:43.985Z,997.56
2022-10-02T00:18:53.955Z,997.57
2022-10-02T00:19:03.863Z,997.53
2022-10-02T00:19:14.788Z,997.56
2022-10-02T00:19:23.872Z,997.55
2022-10-02T00:19:33.875Z,997.55
2022-10-02T00:19:43.881Z,997.68
2022-10-02T00:19:53.881Z,997.52
2022-10-02T00:20:03.869Z,997.58
2022-10-02T00:20:14.859Z,997.54
2022-10-02T00:20:23.879Z,997.60
2022-10-02T00:20:33.863Z,997.63
2022-10-02T00:20:43.876Z,997.60
2022-10-02T00:20:53.856Z,997.60
2022-10-02T00:21:04.010Z,997.61
2022-10-02T00:21:13.870Z,997.60
2022-10-02T00:21:23.925Z,997.61
2022-10-02T00:21:33.860Z,997.62
2022-10-02T00:21:43.874Z,997.63
2022-10-02T00:21:53.860Z,997.63
2022-10-02T00:22:03.851Z,997.62
2022-10-02T00:22:13.853Z,997.64
2022-10-02T00:22:23.857Z,997.62
2022-10-02T00:22:33.869Z,997.65
2022-10-02T00:22:43.861Z,997.61
2022-10-02T00:22:53.856Z,997.57
2022-10-02T00:23:03.872Z,997.62
2022-10-02T00:23:13.862Z,997.63
2022-10-02T00:23:23.860Z,997.63
2022-10-02T00:23:33.959Z,997.62
2022-10-02T00:23:43.839Z,997.57
2022-10-02T00:23:53.864Z,997.61
2022-10-02T00:24:03.984Z,997.65
2022-10-02T00:24:13.848Z,997.62
2022-10-02T00:24:23.837Z,997.66
2022-10-02T00:24:33.838Z,997.64
2022-10-02T00:24:43.842Z,997.64
2022-10-02T00:24:53.850Z,997.61
2022-10-02T00:25:03.841Z,997.63
2022-10-02T00:25:13.851Z,997.62
2022-10-02T00:25:23.839Z,997.67
2022-10-02T00:25:33.916Z,997.67
2022-10-02T00:25:43.843Z,997.68
2022-10-02T00:25:53.865Z,997.64
2022-10-02T00:26:03.843Z,997.67
2022-10-02T00:26:13.846Z,997.66
2022-10-02T00:26:23.850Z,997.65
2022-10-02T00:26:34.241Z,997.63
2022-10-02T00:26:43.856Z,997.63
2022-10-02T00:26:53.853Z,997.64
2022-10-02T00:27:03.833Z,997.68
2022-10-02T00:27:14.798Z,997.64
2022-10-02T00:27:23.894Z,997.70
2022-10-02T00:27:33.903Z,997.70
2022-10-02T00:27:43.849Z,997.66
2022-10-02T00:27:53.915Z,997.69
2022-10-02T00:28:03.994Z,997.68
2022-10-02T00:28:13.894Z,997.66
2022-10-02T00:28:24.024Z,997.65
2022-10-02T00:28:33.830Z,997.67
2022-10-02T00:28:43.834Z,997.68
2022-10-02T00:28:53.923Z,997.69
2022-10-02T00:29:03.826Z,997.71
2022-10-02T00:29:13.878Z,997.72
2022-10-02T00:29:23.825Z,997.68
2022-10-02T00:29:40.869Z,997.71
2022-10-02T00:29:43.871Z,997.67
2022-10-02T00:29:53.812Z,997.64
2022-10-02T00:30:03.831Z,997.59
2022-10-02T00:30:13.810Z,997.71
2022-10-02T00:30:23.836Z,997.60
2022-10-02T00:30:33.814Z,997.72
2022-10-02T00:30:43.814Z,997.66
2022-10-02T00:30:53.812Z,997.67
2022-10-02T00:31:03.837Z,997.71
2022-10-02T00:31:13.840Z,997.77
2022-10-02T00:31:23.855Z,997.70
2022-10-02T00:31:33.869Z,997.71
2022-10-02T00:31:46.866Z,997.68
2022-10-02T00:31:53.892Z,997.70
2022-10-02T00:32:03.910Z,997.77
2022-10-02T00:32:13.816Z,997.76
2022-10-02T00:32:23.815Z,997.74
2022-10-02T00:32:34.805Z,997.74
2022-10-02T00:32:43.829Z,997.74
2022-10-02T00:32:53.815Z,997.71
2022-10-02T00:33:03.910Z,997.72
2022-10-02T00:33:13.801Z,997.66
2022-10-02T00:33:23.814Z,997.74
2022-10-02T00:33:33.808Z,997.85
2022-10-02T00:33:43.828Z,997.70
2022-10-02T00:33:53.833Z,997.75
2022-10-02T00:34:04.012Z,997.75
2022-10-02T00:34:15.402Z,997.76
2022-10-02T00:34:23.872Z,997.74
2022-10-02T00:34:33.805Z,997.71
2022-10-02T00:34:43.804Z,997.74
2022-10-02T00:34:53.826Z,997.72
2022-10-02T00:35:03.809Z,997.78
2022-10-02T00:35:13.813Z,997.76
2022-10-02T00:35:23.829Z,997.74
2022-10-02T00:35:33.786Z,997.72
2022-10-02T00:35:43.802Z,997.71
2022-10-02T00:35:54.291Z,997.70
2022-10-02T00:36:03.879Z,997.67
2022-10-02T00:36:13.782Z,997.73
2022-10-02T00:36:23.789Z,997.73
2022-10-02T00:36:34.197Z,997.75
2022-10-02T00:36:43.788Z,997.74
2022-10-02T00:36:53.791Z,997.72
2022-10-02T00:37:03.794Z,997.67
2022-10-02T00:37:13.794Z,997.73
2022-10-02T00:37:23.788Z,997.76
2022-10-02T00:37:33.782Z,997.79
2022-10-02T00:37:43.794Z,997.75
2022-10-02T00:37:53.788Z,997.77
2022-10-02T00:38:03.890Z,997.77
2022-10-02T00:38:13.798Z,997.76
2022-10-02T00:38:23.786Z,997.71
2022-10-02T00:38:33.792Z,997.74
2022-10-02T00:38:43.794Z,997.81
2022-10-02T00:38:54.311Z,997.84
2022-10-02T00:39:03.798Z,997.84
2022-10-02T00:39:13.768Z,997.68
2022-10-02T00:39:23.776Z,997.74
2022-10-02T00:39:33.841Z,997.79
2022-10-02T00:39:43.875Z,997.68
2022-10-02T00:39:53.772Z,997.72
2022-10-02T00:40:03.806Z,997.92
2022-10-02T00:40:14.286Z,997.79
2022-10-02T00:40:24.296Z,997.82
2022-10-02T00:40:33.780Z,997.78
2022-10-02T00:40:44.291Z,997.83
2022-10-02T00:40:53.775Z,997.72
2022-10-02T00:41:03.782Z,997.78
2022-10-02T00:41:13.759Z,997.76
2022-10-02T00:41:23.781Z,997.74
2022-10-02T00:41:33.786Z,997.84
2022-10-02T00:41:43.781Z,997.77
2022-10-02T00:41:53.757Z,997.79
2022-10-02T00:42:03.759Z,997.76
2022-10-02T00:42:13.816Z,997.80
2022-10-02T00:42:23.758Z,997.76
2022-10-02T00:42:33.756Z,997.75
2022-10-02T00:42:43.757Z,997.74
2022-10-02T00:42:53.764Z,997.71
2022-10-02T00:43:03.783Z,997.69
2022-10-02T00:43:13.757Z,997.76
2022-10-02T00:43:23.860Z,997.78
2022-10-02T00:43:33.754Z,997.83
2022-10-02T00:43:43.758Z,997.82
2022-10-02T00:43:53.862Z,997.79
2022-10-02T00:44:03.818Z,997.86
2022-10-02T00:44:14.309Z,997.76
2022-10-02T00:44:23.772Z,997.81
2022-10-02T00:44:33.763Z,997.81
2022-10-02T00:44:43.801Z,997.84
2022-10-02T00:44:53.741Z,997.87
2022-10-02T00:45:03.881Z,997.82
2022-10-02T00:45:13.763Z,997.81
2022-10-02T00:45:23.743Z,997.85
2022-10-02T00:45:33.858Z,997.81
2022-10-02T00:45:43.790Z,997.80
2022-10-02T00:45:53.834Z,997.84
2022-10-02T00:46:03.772Z,997.83
2022-10-02T00:46:14.364Z,997.88
2022-10-02T00:46:23.815Z,997.85
2022-10-02T00:46:34.206Z,997.89
2022-10-02T00:46:43.774Z,997.82
2022-10-02T00:46:53.747Z,997.78
2022-10-02T00:47:03.748Z,997.80
2022-10-02T00:47:13.780Z,997.86
2022-10-02T00:47:23.754Z,997.88
2022-10-02T00:47:33.757Z,997.83
2022-10-02T00:47:43.734Z,997.91
2022-10-02T00:47:53.751Z,997.90
2022-10-02T00:48:03.761Z,997.85
2022-10-02T00:48:13.729Z,997.87
2022-10-02T00:48:23.769Z,997.86
2022-10-02T00:48:33.755Z,997.84
2022-10-02T00:48:43.731Z,997.86
2022-10-02T00:48:53.731Z,997.89
2022-10-02T00:49:03.752Z,997.87
2022-10-02T00:49:13.814Z,997.89
2022-10-02T00:49:23.759Z,997.86
2022-10-02T00:49:33.756Z,997.89
2022-10-02T00:49:43.835Z,997.84
2022-10-02T00:49:53.790Z,997.79
2022-10-02T00:50:03.725Z,997.78
2022-10-02T00:50:13.738Z,997.90
2022-10-02T00:50:23.744Z,997.90
2022-10-02T00:50:33.846Z,997.91
2022-10-02T00:50:43.732Z,997.89
2022-10-02T00:50:53.737Z,997.93
2022-10-02T00:51:03.724Z,997.83
2022-10-02T00:51:13.743Z,997.85
2022-10-02T00:51:23.735Z,997.75
2022-10-02T00:51:33.717Z,997.84
2022-10-02T00:51:43.722Z,997.91
2022-10-02T00:51:53.752Z,997.84
2022-10-02T00:52:03.720Z,997.91
2022-10-02T00:52:13.720Z,997.87
2022-10-02T00:52:23.731Z,997.82
2022-10-02T00:52:33.786Z,997.88
2022-10-02T00:52:43.719Z,997.92
2022-10-02T00:52:53.707Z,997.83
2022-10-02T00:53:03.723Z,997.87
2022-10-02T00:53:13.718Z,997.83
2022-10-02T00:53:23.739Z,997.83
2022-10-02T00:53:33.727Z,997.91
2022-10-02T00:53:43.708Z,997.94
2022-10-02T00:53:53.706Z,997.96
2022-10-02T00:54:03.726Z,997.92
2022-10-02T00:54:13.727Z,997.94
2022-10-02T00:54:23.712Z,997.94
2022-10-02T00:54:34.348Z,997.86
2022-10-02T00:54:43.847Z,997.94
2022-10-02T00:54:53.699Z,997.87
2022-10-02T00:55:03.749Z,997.89
2022-10-02T00:55:13.742Z,997.81
2022-10-02T00:55:23.707Z,997.86
2022-10-02T00:55:33.738Z,997.88
2022-10-02T00:55:43.749Z,997.89
2022-10-02T00:55:53.705Z,997.93
2022-10-02T00:56:03.733Z,997.90
2022-10-02T00:56:13.695Z,997.89
2022-10-02T00:56:23.713Z,997.92
2022-10-02T00:56:34.100Z,997.88
2022-10-02T00:56:43.753Z,997.93
2022-10-02T00:56:53.690Z,997.91
2022-10-02T00:57:03.715Z,997.90
2022-10-02T00:57:13.758Z,997.89
2022-10-02T00:57:23.690Z,997.88
2022-10-02T00:57:33.713Z,997.92
2022-10-02T00:57:43.698Z,997.88
2022-10-02T00:57:53.691Z,997.92
2022-10-02T00:58:03.706Z,997.90
2022-10-02T00:58:13.689Z,997.86
2022-10-02T00:58:23.692Z,997.92
2022-10-02T00:58:33.838Z,997.91
2022-10-02T00:58:43.701Z,997.99
2022-10-02T00:58:53.686Z,998.01
2022-10-02T00:59:03.705Z,997.95
2022-10-02T00:59:13.772Z,997.97
2022-10-02T00:59:23.700Z,997.89
2022-10-02T00:59:33.729Z,997.95
2022-10-02T00:59:43.698Z,997.94
2022-10-02T00:59:53.693Z,997.93
2022-10-02T01:00:03.678Z,997.93
2022-10-02T01:00:13.877Z,997.94
2022-10-02T01:00:23.712Z,997.99
2022-10-02T01:00:33.776Z,998.02
2022-10-02T01:00:43.767Z,998.02
2022-10-02T01:00:53.794Z,997.92
2022-10-02T01:01:03.771Z,997.98
2022-10-02T01:01:13.813Z,997.93
2022-10-02T01:01:23.721Z,997.95
2022-10-02T01:01:33.697Z,997.96
2022-10-02T01:01:43.708Z,997.98
2022-10-02T01:01:53.745Z,998.00
2022-10-02T01:02:03.802Z,997.93
2022-10-02T01:02:13.711Z,998.02
2022-10-02T01:02:23.756Z,997.95
2022-10-02T01:02:33.662Z,997.96
2022-10-02T01:02:43.689Z,998.00
2022-10-02T01:02:54.314Z,997.93
2022-10-02T01:03:03.667Z,997.98
2022-10-02T01:03:14.327Z,997.98
2022-10-02T01:03:23.664Z,997.99
2022-10-02T01:03:33.662Z,997.96
2022-10-02T01:03:43.694Z,997.97
2022-10-02T01:03:54.340Z,997.95
2022-10-02T01:04:03.667Z,997.98
2022-10-02T01:04:13.676Z,998.00
2022-10-02T01:04:23.666Z,997.99
2022-10-02T01:04:33.693Z,997.95
2022-10-02T01:04:43.681Z,997.92
2022-10-02T01:04:53.676Z,997.98
2022-10-02T01:05:03.681Z,997.98
2022-10-02T01:05:13.666Z,997.98
2022-10-02T01:05:23.905Z,997.97
2022-10-02T01:05:33.656Z,997.93
2022-10-02T01:05:43.687Z,997.96
2022-10-02T01:05:53.652Z,997.98
2022-10-02T01:06:03.677Z,997.98
2022-10-02T01:06:13.650Z,997.95
2022-10-02T01:06:23.694Z,997.96
2022-10-02T01:06:33.899Z,998.08
2022-10-02T01:06:44.305Z,998.03
2022-10-02T01:06:53.653Z,997.99
2022-10-02T01:07:03.691Z,997.95
2022-10-02T01:07:13.770Z,997.94
2022-10-02T01:07:23.647Z,997.95
2022-10-02T01:07:33.669Z,997.97
2022-10-02T01:07:43.664Z,997.98
2022-10-02T01:07:53.659Z,998.04
2022-10-02T01:08:03.644Z,998.05
2022-10-02T01:08:13.647Z,998.03
2022-10-02T01:08:23.643Z,998.05
2022-10-02T01:08:33.674Z,998.05
2022-10-02T01:08:43.665Z,998.01
2022-10-02T01:08:53.669Z,998.02
2022-10-02T01:09:03.658Z,998.05
2022-10-02T01:09:13.734Z,998.04
2022-10-02T01:09:23.649Z,998.01
2022-10-02T01:09:33.643Z,998.03
2022-10-02T01:09:43.642Z,998.00
2022-10-02T01:09:53.632Z,997.95
2022-10-02T01:10:03.656Z,998.05
2022-10-02T01:10:13.641Z,998.01
2022-10-02T01:10:23.638Z,998.00
2022-10-02T01:10:33.744Z,997.95
2022-10-02T01:10:43.632Z,997.92
2022-10-02T01:10:53.659Z,998.01
2022-10-02T01:11:03.659Z,998.11
2022-10-02T01:11:13.707Z,998.02
2022-10-02T01:11:23.637Z,998.03
2022-10-02T01:11:33.647Z,997.87
2022-10-02T01:11:43.650Z,998.06
2022-10-02T01:11:54.317Z,998.05
2022-10-02T01:12:03.624Z,998.04
2022-10-02T01:12:13.635Z,998.03
2022-10-02T01:12:23.624Z,998.02
2022-10-02T01:12:33.643Z,998.05
2022-10-02T01:12:43.629Z,998.08
2022-10-02T01:12:53.624Z,998.08
2022-10-02T01:13:03.620Z,998.04
2022-10-02T01:13:13.656Z,998.06
2022-10-02T01:13:24.307Z,998.05
2022-10-02T01:13:33.631Z,998.10
2022-10-02T01:13:43.646Z,998.08
2022-10-02T01:13:53.648Z,998.04
2022-10-02T01:14:03.626Z,998.04
2022-10-02T01:14:13.625Z,998.06
2022-10-02T01:14:23.617Z,998.10
2022-10-02T01:14:33.623Z,997.99
2022-10-02T01:14:43.621Z,998.05
2022-10-02T01:14:53.629Z,998.10
2022-10-02T01:15:03.636Z,998.08
2022-10-02T01:15:13.608Z,998.06
2022-10-02T01:15:24.326Z,998.09
2022-10-02T01:15:33.643Z,998.05
2022-10-02T01:15:43.686Z,998.05
2022-10-02T01:15:53.630Z,997.98
2022-10-02T01:16:03.653Z,998.03
2022-10-02T01:16:13.669Z,998.07
2022-10-02T01:16:23.682Z,998.04
2022-10-02T01:16:34.005Z,998.12
2022-10-02T01:16:43.628Z,998.09
2022-10-02T01:16:53.717Z,998.04
2022-10-02T01:17:03.652Z,998.11
2022-10-02T01:17:13.676Z,998.09
2022-10-02T01:17:23.606Z,998.10
2022-10-02T01:17:33.737Z,998.13
2022-10-02T01:17:43.595Z,998.10
2022-10-02T01:17:53.856Z,998.15
2022-10-02T01:18:03.614Z,998.10
2022-10-02T01:18:13.741Z,998.11
2022-10-02T01:18:23.598Z,998.13
2022-10-02T01:18:33.614Z,998.15
2022-10-02T01:18:43.623Z,998.11
2022-10-02T01:18:53.593Z,998.09
2022-10-02T01:19:03.594Z,998.13
2022-10-02T01:19:13.603Z,998.18
2022-10-02T01:19:23.590Z,998.12
2022-10-02T01:19:34.326Z,998.14
2022-10-02T01:19:43.600Z,998.16
2022-10-02T01:19:53.599Z,998.11
2022-10-02T01:20:03.588Z,998.17
2022-10-02T01:20:13.606Z,998.13
2022-10-02T01:20:23.593Z,998.12
2022-10-02T01:20:33.598Z,998.16
2022-10-02T01:20:43.615Z,998.22
2022-10-02T01:20:53.686Z,998.18
2022-10-02T01:21:03.594Z,998.14
2022-10-02T01:21:13.638Z,998.22
2022-10-02T01:21:23.598Z,998.25
2022-10-02T01:21:33.628Z,998.15
2022-10-02T01:21:43.651Z,998.22
2022-10-02T01:21:53.606Z,998.22
2022-10-02T01:22:03.587Z,998.20
2022-10-02T01:22:13.621Z,998.23
2022-10-02T01:22:23.592Z,998.20
2022-10-02T01:22:33.608Z,998.16
2022-10-02T01:22:43.574Z,998.14
2022-10-02T01:22:53.585Z,998.22
2022-10-02T01:23:03.597Z,998.25
2022-10-02T01:23:13.582Z,998.15
2022-10-02T01:23:23.578Z,998.10
2022-10-02T01:23:33.620Z,998.25
2022-10-02T01:23:43.589Z,998.16
2022-10-02T01:23:53.591Z,998.21
2022-10-02T01:24:03.575Z,998.25
2022-10-02T01:24:13.575Z,998.22
2022-10-02T01:24:23.590Z,998.20
2022-10-02T01:24:33.586Z,998.19
2022-10-02T01:24:44.300Z,998.22
2022-10-02T01:24:54.319Z,998.21
2022-10-02T01:25:03.577Z,998.17
2022-10-02T01:25:13.567Z,998.19
2022-10-02T01:25:23.601Z,998.22
2022-10-02T01:25:33.600Z,998.20
2022-10-02T01:25:43.581Z,998.18
2022-10-02T01:25:53.616Z,998.25
2022-10-02T01:26:03.853Z,998.21
2022-10-02T01:26:13.562Z,998.25
2022-10-02T01:26:23.569Z,998.24
2022-10-02T01:26:33.862Z,998.25
2022-10-02T01:26:43.564Z,998.24
2022-10-02T01:26:53.568Z,998.25
2022-10-02T01:27:03.569Z,998.28
2022-10-02T01:27:13.588Z,998.27
2022-10-02T01:27:23.553Z,998.24
2022-10-02T01:27:36.619Z,998.27
2022-10-02T01:27:43.564Z,998.32
2022-10-02T01:27:54.471Z,998.16
2022-10-02T01:28:04.346Z,998.22
2022-10-02T01:28:13.614Z,998.20
2022-10-02T01:28:23.672Z,998.24
2022-10-02T01:28:33.560Z,998.29
2022-10-02T01:28:43.579Z,998.33
2022-10-02T01:28:53.574Z,998.23
2022-10-02T01:29:03.547Z,998.28
2022-10-02T01:29:13.554Z,998.32
2022-10-02T01:29:23.633Z,998.29
2022-10-02T01:29:33.561Z,998.25
2022-10-02T01:29:43.553Z,998.26
2022-10-02T01:29:53.698Z,998.20
2022-10-02T01:30:03.663Z,998.22
2022-10-02T01:30:13.552Z,998.27
2022-10-02T01:30:23.537Z,998.28
2022-10-02T01:30:33.543Z,998.26
2022-10-02T01:30:43.563Z,998.30
2022-10-02T01:30:53.567Z,998.27
2022-10-02T01:31:04.312Z,998.30
2022-10-02T01:31:13.682Z,998.31
2022-10-02T01:31:23.574Z,998.27
2022-10-02T01:31:33.603Z,998.28
2022-10-02T01:31:43.606Z,998.23
2022-10-02T01:31:53.668Z,998.27
2022-10-02T01:32:04.370Z,998.26
2022-10-02T01:32:13.552Z,998.24
2022-10-02T01:32:23.550Z,998.32
2022-10-02T01:32:33.586Z,998.34
2022-10-02T01:32:43.546Z,998.27
2022-10-02T01:32:53.555Z,998.23
2022-10-02T01:33:03.532Z,998.40
2022-10-02T01:33:13.539Z,998.32
2022-10-02T01:33:23.555Z,998.24
2022-10-02T01:33:33.527Z,998.29
2022-10-02T01:33:43.542Z,998.27
2022-10-02T01:33:53.532Z,998.30
2022-10-02T01:34:03.525Z,998.25
2022-10-02T01:34:13.588Z,998.37
2022-10-02T01:34:23.546Z,998.29
2022-10-02T01:34:33.529Z,998.29
2022-10-02T01:34:43.527Z,998.32
2022-10-02T01:34:53.528Z,998.34
2022-10-02T01:35:03.529Z,998.37
2022-10-02T01:35:13.521Z,998.31
2022-10-02T01:35:23.562Z,998.35
2022-10-02T01:35:33.528Z,998.29
2022-10-02T01:35:43.526Z,998.30
2022-10-02T01:35:53.548Z,998.28
2022-10-02T01:36:03.525Z,998.36
2022-10-02T01:36:14.322Z,998.32
2022-10-02T01:36:23.881Z,998.30
2022-10-02T01:36:33.834Z,998.34
2022-10-02T01:36:43.513Z,998.41
2022-10-02T01:36:53.515Z,998.33
2022-10-02T01:37:03.522Z,998.37
2022-10-02T01:37:13.510Z,998.36
2022-10-02T01:37:23.508Z,998.36
2022-10-02T01:37:33.525Z,998.39
2022-10-02T01:37:43.555Z,998.36
2022-10-02T01:37:53.561Z,998.37
2022-10-02T01:38:03.518Z,998.41
2022-10-02T01:38:13.534Z,998.41
2022-10-02T01:38:23.629Z,998.39
2022-10-02T01:38:33.514Z,998.37
2022-10-02T01:38:43.523Z,998.37
2022-10-02T01:38:54.592Z,998.38
2022-10-02T01:39:03.517Z,998.38
2022-10-02T01:39:13.507Z,998.45
2022-10-02T01:39:23.531Z,998.43
2022-10-02T01:39:33.515Z,998.34
2022-10-02T01:39:43.500Z,998.33
2022-10-02T01:39:53.504Z,998.40
2022-10-02T01:40:03.498Z,998.40
2022-10-02T01:40:13.513Z,998.43
2022-10-02T01:40:23.544Z,998.42
2022-10-02T01:40:33.525Z,998.38
2022-10-02T01:40:43.493Z,998.37
2022-10-02T01:40:53.500Z,998.38
2022-10-02T01:41:03.494Z,998.39
2022-10-02T01:41:13.497Z,998.44
2022-10-02T01:41:23.502Z,998.43
2022-10-02T01:41:33.590Z,998.47
2022-10-02T01:41:43.505Z,998.44
2022-10-02T01:41:53.512Z,998.46
2022-10-02T01:42:03.511Z,998.46
2022-10-02T01:42:13.504Z,998.45
2022-10-02T01:42:24.324Z,998.52
2022-10-02T01:42:33.587Z,998.47
2022-10-02T01:42:43.480Z,998.50
2022-10-02T01:42:53.505Z,998.44
2022-10-02T01:43:03.489Z,998.43
2022-10-02T01:43:13.487Z,998.40
2022-10-02T01:43:23.509Z,998.42
2022-10-02T01:43:33.493Z,998.45
2022-10-02T01:43:43.519Z,998.41
2022-10-02T01:43:53.543Z,998.41
2022-10-02T01:44:03.596Z,998.41
2022-10-02T01:44:13.530Z,998.39
2022-10-02T01:44:23.514Z,998.39
2022-10-02T01:44:33.580Z,998.42
2022-10-02T01:44:43.488Z,998.37
2022-10-02T01:44:53.475Z,998.50
2022-10-02T01:45:03.495Z,998.44
2022-10-02T01:45:13.523Z,998.50
2022-10-02T01:45:23.501Z,998.47
2022-10-02T01:45:33.541Z,998.48
2022-10-02T01:45:43.518Z,998.46
2022-10-02T01:45:53.585Z,998.51
2022-10-02T01:46:03.564Z,998.48
2022-10-02T01:46:16.500Z,998.51
2022-10-02T01:46:24.326Z,998.51
2022-10-02T01:46:33.859Z,998.47
2022-10-02T01:46:43.505Z,998.48
2022-10-02T01:46:53.474Z,998.56
2022-10-02T01:47:03.480Z,998.43
2022-10-02T01:47:13.478Z,998.40
2022-10-02T01:47:24.309Z,998.25
2022-10-02T01:47:33.477Z,998.42
2022-10-02T01:47:43.484Z,998.36
2022-10-02T01:47:53.496Z,998.35
2022-10-02T01:48:03.473Z,998.46
2022-10-02T01:48:13.479Z,998.36
2022-10-02T01:48:23.454Z,998.48
2022-10-02T01:48:34.320Z,998.46
2022-10-02T01:48:43.459Z,998.44
2022-10-02T01:48:53.460Z,998.49
2022-10-02T01:49:03.466Z,998.48
2022-10-02T01:49:13.460Z,998.36
2022-10-02T01:49:23.468Z,998.37
2022-10-02T01:49:33.481Z,998.55
2022-10-02T01:49:43.455Z,998.55
2022-10-02T01:49:53.593Z,998.38
2022-10-02T01:50:03.448Z,998.46
2022-10-02T01:50:13.530Z,998.38
2022-10-02T01:50:30.462Z,998.49
2022-10-02T01:50:33.493Z,998.42
2022-10-02T01:50:44.321Z,998.34
2022-10-02T01:50:53.461Z,998.43
2022-10-02T01:51:03.449Z,998.39
2022-10-02T01:51:13.510Z,998.40
2022-10-02T01:51:23.444Z,998.36
2022-10-02T01:51:33.446Z,998.48
2022-10-02T01:51:43.465Z,998.47
2022-10-02T01:51:53.539Z,998.45
2022-10-02T01:52:03.437Z,998.47
2022-10-02T01:52:13.442Z,998.44
2022-10-02T01:52:23.452Z,998.50
2022-10-02T01:52:33.439Z,998.48
2022-10-02T01:52:43.465Z,998.54
2022-10-02T01:52:53.615Z,998.52
2022-10-02T01:53:03.443Z,998.48
2022-10-02T01:53:14.313Z,998.52
2022-10-02T01:53:23.435Z,998.45
2022-10-02T01:53:33.469Z,998.50
2022-10-02T01:53:43.453Z,998.50
2022-10-02T01:53:53.453Z,998.50
2022-10-02T01:54:03.450Z,998.48
2022-10-02T01:54:13.481Z,998.51
2022-10-02T01:54:23.430Z,998.43
2022-10-02T01:54:33.425Z,998.45
2022-10-02T01:54:43.435Z,998.49
2022-10-02T01:54:53.487Z,998.55
2022-10-02T01:55:03.445Z,998.45
2022-10-02T01:55:13.439Z,998.51
2022-10-02T01:55:23.425Z,998.56
2022-10-02T01:55:33.460Z,998.37
2022-10-02T01:55:43.440Z,998.42
2022-10-02T01:55:53.426Z,998.44
2022-10-02T01:56:03.449Z,998.47
2022-10-02T01:56:13.417Z,998.54
2022-10-02T01:56:23.427Z,998.53
2022-10-02T01:56:33.686Z,998.51
2022-10-02T01:56:43.421Z,998.60
2022-10-02T01:56:54.352Z,998.41
2022-10-02T01:57:03.564Z,998.49
2022-10-02T01:57:13.424Z,998.43
2022-10-02T01:57:23.433Z,998.55
2022-10-02T01:57:33.437Z,998.56
2022-10-02T01:57:43.420Z,998.56
2022-10-02T01:57:53.425Z,998.49
2022-10-02T01:58:03.440Z,998.49
2022-10-02T01:58:13.409Z,998.47
2022-10-02T01:58:23.446Z,998.48
2022-10-02T01:58:33.431Z,998.49
2022-10-02T01:58:43.415Z,998.44
2022-10-02T01:58:53.450Z,998.54
2022-10-02T01:59:03.487Z,998.49
2022-10-02T01:59:13.413Z,998.48
2022-10-02T01:59:23.423Z,998.49
2022-10-02T01:59:33.404Z,998.48
2022-10-02T01:59:43.431Z,998.44
2022-10-02T01:59:53.422Z,998.44
2022-10-02T02:00:03.406Z,998.44
2022-10-02T02:00:13.426Z,998.57
2022-10-02T02:00:23.422Z,998.51
2022-10-02T02:00:33.399Z,998.53
2022-10-02T02:00:43.523Z,998.58
2022-10-02T02:00:53.456Z,998.50
2022-10-02T02:01:04.419Z,998.46
2022-10-02T02:01:13.584Z,998.40
2022-10-02T02:01:23.537Z,998.38
2022-10-02T02:01:33.468Z,998.50
2022-10-02T02:01:43.406Z,998.56
2022-10-02T02:01:53.445Z,998.45
2022-10-02T02:02:03.420Z,998.37
2022-10-02T02:02:13.505Z,998.49
2022-10-02T02:02:23.465Z,998.49
2022-10-02T02:02:34.457Z,998.56
2022-10-02T02:02:43.435Z,998.44
2022-10-02T02:02:53.394Z,998.42
2022-10-02T02:03:03.407Z,998.55
2022-10-02T02:03:13.457Z,998.51
2022-10-02T02:03:24.318Z,998.53
2022-10-02T02:03:33.398Z,998.50
2022-10-02T02:03:44.330Z,998.43
2022-10-02T02:03:53.388Z,998.50
2022-10-02T02:04:03.404Z,998.55
2022-10-02T02:04:13.398Z,998.55
2022-10-02T02:04:23.400Z,998.51
2022-10-02T02:04:33.414Z,998.55
2022-10-02T02:04:43.424Z,998.56